createdAt,value
2022-11-05T07:35:30.285Z,8.03
2022-11-05T07:50:18.804Z,8.09
2022-11-05T07:54:15.299Z,8.00
2022-11-05T08:01:27.414Z,8.11
2022-11-05T08:08:41.505Z,8.01
2022-11-05T08:52:25.523Z,8.09
2022-11-05T09:09:16.525Z,8.17
2022-11-05T09:21:00.693Z,8.31
2022-11-05T09:32:21.959Z,8.31
2022-11-05T09:39:49.774Z,8.43
2022-11-05T09:47:23.960Z,8.37
2022-11-05T09:57:03.702Z,8.42
2022-11-05T10:00:10.543Z,8.43
2022-11-05T10:03:23.109Z,8.45
2022-11-05T10:06:22.475Z,8.53
2022-11-05T10:24:19.181Z,9.62
2022-11-05T10:28:07.346Z,9.49
2022-11-05T10:31:44.719Z,9.50
2022-11-05T10:35:05.628Z,9.51
2022-11-05T10:37:57.900Z,9.40
2022-11-05T10:45:05.678Z,9.51
2022-11-05T10:48:20.786Z,9.65
2022-11-05T10:51:10.356Z,9.56
2022-11-05T10:54:46.099Z,9.59
2022-11-05T10:57:38.092Z,9.64
2022-11-05T11:00:35.670Z,9.71
2022-11-05T11:03:49.610Z,9.83
2022-11-05T11:06:42.080Z,9.79
2022-11-05T11:09:45.541Z,9.89
2022-11-05T11:12:45.697Z,9.88
2022-11-05T11:15:37.271Z,9.85
2022-11-05T11:18:40.329Z,9.87
2022-11-05T11:21:29.244Z,9.91
2022-11-05T11:24:30.994Z,9.95
2022-11-05T11:27:37.667Z,10.02
2022-11-05T11:30:32.132Z,10.04
2022-11-05T11:33:25.412Z,10.06
2022-11-05T11:36:23.369Z,10.07
2022-11-05T11:39:18.405Z,10.11
2022-11-05T11:42:30.137Z,10.21
2022-11-05T11:49:52.604Z,10.25
2022-11-05T11:52:43.859Z,10.16
2022-11-05T11:55:39.328Z,10.21
2022-11-05T11:58:47.447Z,10.30
2022-11-05T12:01:46.973Z,10.20
2022-11-05T12:04:49.833Z,10.32
2022-11-05T12:07:44.701Z,10.20
2022-11-05T12:11:09.106Z,10.24
2022-11-05T12:14:01.211Z,10.23
2022-11-05T12:17:09.933Z,10.35
2022-11-05T12:20:15.010Z,10.38
2022-11-05T12:23:30.970Z,10.38
2022-11-05T12:27:07.101Z,10.38
2022-11-05T12:30:25.891Z,10.39
2022-11-05T12:33:25.878Z,10.32
2022-11-05T12:36:27.479Z,10.39
2022-11-05T12:39:53.263Z,10.40
2022-11-05T12:43:11.692Z,10.28
2022-11-05T12:46:11.394Z,10.41
2022-11-05T12:49:18.104Z,10.41
2022-11-05T12:52:40.595Z,10.33
2022-11-05T12:55:53.446Z,10.36
2022-11-05T12:58:55.502Z,10.41
2022-11-05T13:01:47.885Z,10.48
2022-11-05T13:04:40.727Z,10.52
2022-11-05T13:07:36.893Z,10.53
2022-11-05T13:11:02.059Z,10.53
2022-11-05T13:14:02.562Z,10.53
2022-11-05T13:17:02.748Z,10.54
2022-11-05T13:20:02.114Z,10.54
2022-11-05T13:22:55.022Z,10.55
2022-11-05T13:25:48.345Z,10.58
2022-11-05T13:28:47.078Z,10.54
2022-11-05T13:31:45.246Z,10.57
2022-11-05T13:34:37.444Z,10.59
2022-11-05T13:37:46.767Z,10.58
2022-11-05T13:40:37.788Z,10.60
2022-11-05T13:43:30.244Z,10.60
2022-11-05T13:46:28.884Z,10.63
2022-11-05T13:49:24.587Z,10.64
2022-11-05T13:53:01.755Z,10.67
2022-11-05T13:56:01.719Z,10.67
2022-11-05T13:59:17.726Z,10.69
2022-11-05T14:02:15.230Z,10.70
2022-11-05T14:05:02.537Z,10.70
2022-11-05T14:07:49.562Z,10.73
2022-11-05T14:10:44.886Z,10.74
2022-11-05T14:13:31.684Z,10.75
2022-11-05T14:16:20.056Z,10.79
2022-11-05T14:19:29.694Z,10.87
2022-11-05T14:22:31.843Z,10.89
2022-11-05T14:25:18.528Z,10.89
2022-11-05T14:28:39.258Z,10.91
2022-11-05T14:34:45.960Z,10.80
2022-11-05T14:42:35.850Z,10.93
2022-11-05T14:50:20.491Z,10.95
2022-11-05T14:53:30.941Z,10.97
2022-11-05T14:56:19.253Z,10.85
2022-11-05T14:59:31.301Z,10.98
2022-11-05T15:02:21.884Z,10.96
2022-11-05T15:05:32.071Z,10.99
2022-11-05T15:08:38.750Z,10.99
2022-11-05T15:11:37.426Z,10.97
2022-11-05T15:14:31.749Z,10.99
2022-11-05T15:17:23.824Z,11.02
2022-11-05T15:20:43.834Z,11.01
2022-11-05T15:23:39.190Z,11.02
2022-11-05T15:26:50.628Z,11.02
2022-11-05T15:29:38.655Z,10.99
2022-11-05T15:32:38.357Z,11.00
2022-11-05T15:35:28.206Z,11.01
2022-11-05T15:38:34.077Z,11.02
2022-11-05T15:41:27.033Z,11.02
2022-11-05T15:44:24.859Z,11.00
2022-11-05T15:47:16.841Z,11.02
2022-11-05T15:50:15.141Z,11.00
2022-11-05T15:53:41.709Z,11.00
2022-11-05T15:56:37.565Z,10.99
2022-11-05T15:59:25.963Z,11.00
2022-11-05T16:02:25.499Z,11.01
2022-11-05T16:05:13.801Z,11.02
2022-11-05T16:08:01.997Z,11.02
2022-11-05T16:10:51.821Z,11.01
2022-11-05T16:13:41.129Z,11.01
2022-11-05T16:16:33.844Z,11.03
2022-11-05T16:19:41.011Z,11.03
2022-11-05T16:22:44.832Z,11.06
2022-11-05T16:25:44.018Z,11.06
2022-11-05T16:28:30.819Z,11.07
2022-11-05T16:31:24.316Z,11.09
2022-11-05T16:34:25.022Z,11.09
2022-11-05T16:37:14.627Z,11.09
2022-11-05T16:40:32.598Z,11.06
2022-11-05T16:51:16.757Z,10.94
2022-11-05T16:54:37.992Z,11.05
2022-11-05T17:01:36.708Z,11.02
2022-11-05T17:04:34.625Z,10.87
2022-11-05T17:07:26.702Z,10.91
2022-11-05T17:10:18.880Z,10.90
2022-11-05T17:13:11.759Z,10.89
2022-11-05T17:16:02.915Z,10.94
2022-11-05T17:18:55.040Z,10.84
2022-11-05T17:21:47.708Z,10.89
2022-11-05T17:24:41.746Z,10.90
2022-11-05T17:27:53.700Z,10.93
2022-11-05T17:30:51.897Z,10.81
2022-11-05T17:33:51.112Z,10.76
2022-11-05T17:36:39.399Z,10.80
2022-11-05T17:39:31.449Z,10.85
2022-11-05T17:42:19.112Z,10.79
2022-11-05T17:45:15.454Z,10.80
2022-11-05T17:48:15.484Z,10.81
2022-11-05T17:51:43.292Z,10.85
2022-11-05T17:54:57.751Z,10.83
2022-11-05T17:57:49.412Z,10.81
2022-11-05T18:00:39.749Z,10.80
2022-11-05T18:03:39.183Z,10.72
2022-11-05T18:48:26.902Z,10.88
2022-11-05T23:05:37.893Z,9.72
2022-11-05T23:33:17.408Z,9.44
